createdAt,value
2018-11-25T00:00:38.449Z,66.30
2018-11-25T00:02:42.307Z,72.85
2018-11-25T00:04:45.810Z,70.20
2018-11-25T00:06:49.326Z,78.78
2018-11-25T00:08:52.965Z,71.60
2018-11-25T00:10:56.133Z,62.40
2018-11-25T00:12:59.522Z,84.30
2018-11-25T00:15:03.031Z,74.97
2018-11-25T00:17:06.737Z,68.52
2018-11-25T00:19:10.217Z,68.83
2018-11-25T00:21:13.488Z,73.28
2018-11-25T00:23:16.996Z,69.32
2018-11-25T00:25:20.684Z,73.50
2018-11-25T00:27:24.717Z,73.62
2018-11-25T00:29:28.320Z,71.12
2018-11-25T00:31:31.722Z,70.50
2018-11-25T00:33:35.614Z,69.75
2018-11-25T00:35:40.061Z,69.15
2018-11-25T00:37:48.475Z,73.50
2018-11-25T00:39:46.974Z,70.40
2018-11-25T00:41:50.493Z,73.28
2018-11-25T00:43:54.066Z,72.42
2018-11-25T00:45:57.894Z,77.17
2018-11-25T00:48:01.127Z,73.28
2018-11-25T00:52:25.829Z,68.97
2018-11-25T00:54:29.717Z,80.92
2018-11-25T00:56:33.193Z,72.85
2018-11-25T00:58:37.002Z,80.35
2018-11-25T01:00:40.555Z,75.52
2018-11-25T01:02:44.298Z,83.37
2018-11-25T01:04:47.533Z,85.32
2018-11-25T01:06:51.371Z,79.97
2018-11-25T01:08:54.600Z,74.40
2018-11-25T01:10:58.103Z,75.72
2018-11-25T01:13:01.810Z,75.83
2018-11-25T01:15:07.030Z,79.87
2018-11-25T01:17:10.792Z,80.05
2018-11-25T01:19:14.383Z,79.03
2018-11-25T01:21:18.194Z,80.30
2018-11-25T01:23:21.888Z,79.30
2018-11-25T01:25:25.433Z,77.40
2018-11-25T01:27:28.909Z,82.02
2018-11-25T01:29:32.510Z,86.80
2018-11-25T01:31:36.166Z,85.70
2018-11-25T01:33:39.677Z,84.72
2018-11-25T01:35:43.402Z,88.75
2018-11-25T01:37:46.958Z,94.20
2018-11-25T01:39:50.156Z,81.08
2018-11-25T01:41:54.043Z,84.35
2018-11-25T01:43:57.532Z,77.17
2018-11-25T01:46:01.346Z,76.80
2018-11-25T01:48:05.341Z,82.67
2018-11-25T01:50:11.002Z,86.42
2018-11-25T01:52:14.497Z,88.85
2018-11-25T01:54:18.175Z,86.30
2018-11-25T01:56:21.630Z,92.27
2018-11-25T01:58:24.837Z,85.53
2018-11-25T02:00:28.697Z,84.32
2018-11-25T02:02:31.895Z,89.80
2018-11-25T02:04:35.566Z,89.30
2018-11-25T02:06:39.059Z,87.33
2018-11-25T02:08:42.543Z,92.20
2018-11-25T02:10:46.059Z,91.97
2018-11-25T02:12:50.033Z,91.33
2018-11-25T02:14:53.834Z,86.90
2018-11-25T02:16:57.921Z,84.47
2018-11-25T02:19:01.538Z,95.75
2018-11-25T02:21:05.013Z,91.50
2018-11-25T02:23:08.590Z,92.27
2018-11-25T02:25:12.557Z,93.25
2018-11-25T02:27:16.121Z,92.88
2018-11-25T02:29:19.581Z,96.20
2018-11-25T02:31:23.095Z,99.87
2018-11-25T02:33:26.537Z,97.02
2018-11-25T02:35:30.311Z,93.35
2018-11-25T02:37:33.777Z,98.75
2018-11-25T02:39:36.988Z,105.17
2018-11-25T02:41:40.796Z,99.13
2018-11-25T02:43:44.399Z,103.85
2018-11-25T02:45:47.867Z,100.18
2018-11-25T02:47:51.176Z,98.90
2018-11-25T02:49:54.376Z,101.60
2018-11-25T02:51:57.936Z,105.90
2018-11-25T02:54:01.316Z,94.37
2018-11-25T02:56:05.221Z,105.30
2018-11-25T02:58:08.778Z,99.67
2018-11-25T03:00:12.322Z,93.78
2018-11-25T03:02:15.831Z,99.62
2018-11-25T03:04:19.338Z,102.30
2018-11-25T03:06:23.857Z,101.90
2018-11-25T03:08:26.390Z,96.30
2018-11-25T03:10:29.970Z,97.82
2018-11-25T03:12:33.153Z,92.07
2018-11-25T03:14:36.830Z,96.12
2018-11-25T03:16:40.326Z,101.05
2018-11-25T03:18:43.806Z,100.22
2018-11-25T03:20:47.517Z,90.85
2018-11-25T03:22:51.635Z,97.95
2018-11-25T03:24:55.199Z,99.90
2018-11-25T03:26:58.792Z,99.05
2018-11-25T03:29:02.278Z,95.77
2018-11-25T03:31:06.543Z,101.33
2018-11-25T03:33:09.794Z,104.80
2018-11-25T03:35:13.828Z,102.00
2018-11-25T03:37:17.395Z,94.65
2018-11-25T03:39:21.217Z,109.97
2018-11-25T03:41:24.709Z,95.95
2018-11-25T03:43:27.901Z,101.55
2018-11-25T03:45:31.179Z,99.03
2018-11-25T03:47:34.816Z,99.67
2018-11-25T03:49:38.002Z,100.80
2018-11-25T03:51:41.220Z,100.10
2018-11-25T03:53:45.367Z,99.03
2018-11-25T03:55:48.845Z,102.27
2018-11-25T03:57:52.351Z,108.57
2018-11-25T03:59:55.538Z,90.70
2018-11-25T04:01:59.025Z,102.10
2018-11-25T04:04:03.205Z,98.58
2018-11-25T04:06:06.673Z,102.72
2018-11-25T04:08:10.216Z,100.18
2018-11-25T04:10:16.886Z,101.12
2018-11-25T04:12:20.460Z,94.58
2018-11-25T04:14:23.912Z,104.03
2018-11-25T04:16:27.150Z,101.40
2018-11-25T04:18:30.652Z,100.45
2018-11-25T04:20:34.163Z,99.50
2018-11-25T04:22:38.376Z,99.93
2018-11-25T04:24:41.853Z,100.38
2018-11-25T04:26:45.322Z,97.05
2018-11-25T04:28:48.522Z,96.43
2018-11-25T04:30:52.029Z,88.00
2018-11-25T04:32:55.502Z,90.85
2018-11-25T04:34:58.677Z,96.92
2018-11-25T04:37:01.883Z,99.30
2018-11-25T04:39:08.618Z,88.72
2018-11-25T04:41:12.409Z,92.33
2018-11-25T04:43:16.388Z,91.50
2018-11-25T04:45:20.531Z,94.87
2018-11-25T04:47:24.314Z,96.35
2018-11-25T04:49:28.012Z,88.72
2018-11-25T04:51:31.265Z,96.20
2018-11-25T04:53:34.467Z,92.53
2018-11-25T04:55:38.181Z,86.85
2018-11-25T04:57:41.641Z,92.88
2018-11-25T04:59:45.309Z,86.22
2018-11-25T05:01:49.208Z,91.47
2018-11-25T05:03:53.187Z,99.92
2018-11-25T05:05:56.653Z,94.50
2018-11-25T05:08:00.323Z,96.85
2018-11-25T05:10:04.813Z,92.97
2018-11-25T05:12:08.603Z,97.67
2018-11-25T05:14:12.142Z,92.02
2018-11-25T05:16:15.794Z,91.75
2018-11-25T05:18:19.249Z,90.20
2018-11-25T05:20:23.385Z,100.85
2018-11-25T05:22:26.905Z,92.75
2018-11-25T05:24:30.392Z,95.03
2018-11-25T05:26:34.221Z,98.92
2018-11-25T05:28:37.409Z,100.12
2018-11-25T05:30:40.639Z,97.20
2018-11-25T05:32:44.266Z,96.80
2018-11-25T05:34:47.706Z,93.75
2018-11-25T05:36:51.867Z,97.20
2018-11-25T05:38:55.552Z,99.13
2018-11-25T05:40:59.014Z,95.38
2018-11-25T05:43:02.203Z,106.27
2018-11-25T05:45:08.360Z,100.40
2018-11-25T05:47:11.888Z,96.08
2018-11-25T05:49:15.373Z,90.85
2018-11-25T05:51:18.813Z,98.60
2018-11-25T05:53:22.388Z,91.97
2018-11-25T05:55:26.293Z,99.87
2018-11-25T05:57:29.647Z,94.77
2018-11-25T05:59:34.383Z,94.42
2018-11-25T06:01:37.086Z,92.72
2018-11-25T06:03:40.578Z,96.57
2018-11-25T06:05:44.013Z,98.10
2018-11-25T06:07:47.517Z,98.90
2018-11-25T06:09:50.893Z,102.67
2018-11-25T06:11:54.082Z,97.50
2018-11-25T06:13:57.282Z,99.67
2018-11-25T06:16:00.757Z,93.03
2018-11-25T06:18:04.566Z,99.83
2018-11-25T06:20:10.460Z,104.38
2018-11-25T06:22:13.954Z,101.35
2018-11-25T06:24:17.579Z,92.75
2018-11-25T06:26:21.517Z,100.53
2018-11-25T06:28:24.771Z,95.90
2018-11-25T06:30:28.264Z,93.95
2018-11-25T06:32:31.719Z,93.97
2018-11-25T06:34:34.912Z,94.43
2018-11-25T06:36:38.725Z,100.18
2018-11-25T06:38:42.277Z,96.92
2018-11-25T06:40:45.840Z,94.72
2018-11-25T06:42:49.493Z,90.97
2018-11-25T06:44:53.309Z,94.65
2018-11-25T06:46:56.793Z,94.77
2018-11-25T06:49:00.595Z,93.80
2018-11-25T06:51:04.475Z,95.22
2018-11-25T06:53:08.276Z,97.82
2018-11-25T06:55:12.429Z,94.07
2018-11-25T06:57:16.090Z,95.22
2018-11-25T06:59:19.649Z,97.02
2018-11-25T07:01:23.152Z,93.12
2018-11-25T07:03:26.625Z,94.20
2018-11-25T07:05:29.837Z,93.77
2018-11-25T07:07:33.297Z,92.33
2018-11-25T07:09:36.753Z,94.03
2018-11-25T07:11:39.994Z,95.70
2018-11-25T07:13:43.184Z,89.33
2018-11-25T07:15:46.891Z,87.45
2018-11-25T07:17:50.409Z,100.07
2018-11-25T07:19:53.886Z,94.35
2018-11-25T07:21:57.357Z,92.15
2018-11-25T07:24:00.846Z,83.95
2018-11-25T07:26:04.325Z,87.90
2018-11-25T07:28:17.884Z,89.92
2018-11-25T07:30:15.684Z,100.70
2018-11-25T07:32:19.486Z,99.05
2018-11-25T07:34:22.975Z,95.70
2018-11-25T07:36:26.546Z,97.22
2018-11-25T07:38:29.817Z,91.53
2018-11-25T07:40:33.169Z,99.23
2018-11-25T07:42:36.897Z,106.83
2018-11-25T07:44:40.110Z,96.10
2018-11-25T07:46:43.348Z,98.97
2018-11-25T07:48:47.112Z,98.10
2018-11-25T07:50:50.890Z,96.82
2018-11-25T07:52:54.637Z,105.87
2018-11-25T07:54:58.185Z,110.52
2018-11-25T07:57:01.391Z,105.45
2018-11-25T07:59:04.689Z,97.50
2018-11-25T08:01:08.191Z,97.08
2018-11-25T08:03:11.897Z,100.72
2018-11-25T08:05:21.967Z,99.35
2018-11-25T08:07:25.656Z,105.65
2018-11-25T08:09:29.323Z,98.52
2018-11-25T08:11:32.792Z,99.65
2018-11-25T08:13:36.139Z,108.20
2018-11-25T08:15:39.634Z,106.05
2018-11-25T08:17:43.670Z,100.10
2018-11-25T08:19:47.382Z,98.35
2018-11-25T08:21:50.890Z,98.75
2018-11-25T08:23:54.606Z,102.02
2018-11-25T08:25:58.449Z,106.90
2018-11-25T08:28:01.913Z,94.92
2018-11-25T08:30:08.625Z,103.47
2018-11-25T08:32:12.412Z,112.22
2018-11-25T08:34:15.614Z,117.97
2018-11-25T08:36:19.524Z,105.90
2018-11-25T08:38:23.117Z,100.25
2018-11-25T08:40:26.601Z,109.70
2018-11-25T08:42:29.857Z,100.60
2018-11-25T08:44:33.885Z,101.20
2018-11-25T08:46:37.225Z,109.35
2018-11-25T08:48:40.739Z,102.45
2018-11-25T08:50:44.205Z,100.75
2018-11-25T08:52:49.551Z,105.87
2018-11-25T08:54:53.163Z,106.40
2018-11-25T08:56:56.910Z,106.35
2018-11-25T08:59:01.369Z,106.58
2018-11-25T09:01:06.325Z,106.03
2018-11-25T09:03:09.823Z,101.27
2018-11-25T09:05:14.616Z,110.35
2018-11-25T09:07:17.989Z,108.03
2018-11-25T09:09:21.523Z,98.35
2018-11-25T09:11:25.091Z,99.50
2018-11-25T09:13:28.342Z,106.90
2018-11-25T09:15:32.290Z,103.20
2018-11-25T09:17:36.113Z,99.67
2018-11-25T09:19:39.302Z,107.60
2018-11-25T09:21:43.145Z,93.42
2018-11-25T09:23:46.637Z,99.50
2018-11-25T09:25:49.856Z,101.67
2018-11-25T09:27:53.813Z,102.25
2018-11-25T09:29:56.999Z,99.90
2018-11-25T09:32:00.459Z,111.55
2018-11-25T09:34:04.356Z,103.65
2018-11-25T09:36:07.862Z,102.45
2018-11-25T09:38:11.345Z,97.85
2018-11-25T09:40:17.468Z,103.02
2018-11-25T09:42:20.936Z,102.70
2018-11-25T09:44:24.399Z,112.10
2018-11-25T09:46:27.636Z,102.25
2018-11-25T09:48:30.859Z,103.30
2018-11-25T09:50:34.665Z,108.65
2018-11-25T09:52:38.482Z,106.47
2018-11-25T09:54:42.228Z,105.60
2018-11-25T09:56:46.733Z,109.65
2018-11-25T09:58:50.312Z,106.63
2018-11-25T10:00:53.818Z,109.83
2018-11-25T10:02:57.320Z,105.32
2018-11-25T10:05:01.039Z,115.50
2018-11-25T10:07:04.659Z,110.80
2018-11-25T10:09:09.205Z,106.75
2018-11-25T10:11:12.728Z,96.90
2018-11-25T10:13:16.218Z,99.50
2018-11-25T10:15:24.145Z,100.90
2018-11-25T10:17:27.661Z,103.62
2018-11-25T10:19:31.171Z,100.58
2018-11-25T10:21:34.381Z,97.90
2018-11-25T10:23:37.889Z,99.07
2018-11-25T10:25:41.356Z,100.92
2018-11-25T10:27:44.620Z,95.67
2018-11-25T10:29:48.172Z,90.57
2018-11-25T10:31:51.660Z,101.72
2018-11-25T10:33:55.342Z,87.45
2018-11-25T10:35:59.803Z,93.17
2018-11-25T10:38:03.479Z,88.13
2018-11-25T10:40:12.687Z,85.95
2018-11-25T10:42:16.216Z,89.67
2018-11-25T10:44:19.426Z,84.70
2018-11-25T10:46:23.031Z,83.50
2018-11-25T10:48:26.547Z,84.95
2018-11-25T10:50:29.883Z,84.03
2018-11-25T10:52:33.692Z,80.10
2018-11-25T10:54:36.895Z,78.25
2018-11-25T10:56:40.188Z,86.90
2018-11-25T10:58:43.668Z,83.42
2018-11-25T11:00:52.541Z,72.10
2018-11-25T11:03:02.745Z,77.33
2018-11-25T11:05:07.427Z,78.28
2018-11-25T11:07:16.697Z,77.40
2018-11-25T11:09:20.525Z,70.27
2018-11-25T11:11:24.622Z,72.75
2018-11-25T11:13:28.368Z,69.32
2018-11-25T11:15:31.884Z,71.95
2018-11-25T11:17:35.221Z,73.40
2018-11-25T11:19:39.028Z,72.58
2018-11-25T11:21:42.266Z,76.80
2018-11-25T11:23:45.793Z,74.70
2018-11-25T11:25:49.265Z,74.95
2018-11-25T11:27:52.484Z,81.30
2018-11-25T11:29:55.970Z,84.00
2018-11-25T11:31:59.455Z,78.47
2018-11-25T11:34:03.289Z,78.35
2018-11-25T11:36:06.809Z,80.07
2018-11-25T11:38:10.017Z,75.70
2018-11-25T11:40:14.247Z,79.57
2018-11-25T11:42:17.723Z,80.97
2018-11-25T11:44:21.175Z,84.03
2018-11-25T11:46:24.417Z,82.70
2018-11-25T11:48:28.150Z,86.17
2018-11-25T11:50:31.631Z,79.80
2018-11-25T11:52:35.296Z,86.57
2018-11-25T11:54:38.853Z,81.50
2018-11-25T11:56:42.047Z,90.20
2018-11-25T11:58:45.502Z,82.05
2018-11-25T12:00:48.998Z,85.17
2018-11-25T12:02:52.659Z,81.45
2018-11-25T12:04:56.206Z,98.70
2018-11-25T12:06:59.683Z,89.05
2018-11-25T12:09:03.253Z,92.22
2018-11-25T12:11:07.073Z,91.42
2018-11-25T12:13:10.578Z,83.80
2018-11-25T12:15:20.035Z,85.50
2018-11-25T12:17:23.557Z,90.40
2018-11-25T12:19:27.106Z,90.55
2018-11-25T12:21:30.786Z,87.65
2018-11-25T12:23:34.414Z,112.35
2018-11-25T12:25:38.229Z,99.58
2018-11-25T12:27:41.481Z,91.25
2018-11-25T12:29:44.726Z,88.97
2018-11-25T12:31:49.145Z,91.30
2018-11-25T12:33:52.630Z,100.35
2018-11-25T12:35:56.409Z,91.57
2018-11-25T12:37:59.885Z,89.28
2018-11-25T12:40:03.692Z,96.05
2018-11-25T12:42:07.197Z,102.67
2018-11-25T12:44:10.925Z,91.78
2018-11-25T12:46:14.471Z,98.15
2018-11-25T12:48:17.967Z,97.72
2018-11-25T12:50:23.716Z,106.05
2018-11-25T12:52:27.190Z,91.20
2018-11-25T12:54:30.685Z,98.60
2018-11-25T12:56:34.269Z,101.27
2018-11-25T12:58:37.741Z,97.45
2018-11-25T13:00:42.349Z,97.05
2018-11-25T13:02:46.154Z,97.70
2018-11-25T13:04:49.621Z,91.32
2018-11-25T13:06:53.099Z,95.42
2018-11-25T13:08:56.287Z,97.88
2018-11-25T13:10:59.496Z,90.53
2018-11-25T13:13:03.214Z,100.70
2018-11-25T13:15:07.645Z,99.87
2018-11-25T13:17:11.341Z,94.77
2018-11-25T13:19:14.861Z,93.47
2018-11-25T13:21:18.357Z,95.42
2018-11-25T13:23:21.891Z,97.72
2018-11-25T13:25:25.139Z,89.93
2018-11-25T13:27:28.658Z,93.37
2018-11-25T13:29:32.179Z,84.45
2018-11-25T13:31:35.405Z,88.57
2018-11-25T13:33:38.948Z,86.20
2018-11-25T13:35:42.839Z,91.90
2018-11-25T13:37:46.362Z,87.30
2018-11-25T13:39:49.956Z,88.33
2018-11-25T13:41:53.813Z,89.15
2018-11-25T13:43:57.165Z,82.67
2018-11-25T13:46:00.720Z,85.20
2018-11-25T13:48:03.956Z,74.32
2018-11-25T13:50:09.190Z,81.50
2018-11-25T13:52:12.441Z,83.00
2018-11-25T13:54:15.965Z,78.52
2018-11-25T13:56:19.784Z,75.30
2018-11-25T13:58:23.518Z,77.30
2018-11-25T14:00:31.962Z,78.77
2018-11-25T14:02:35.342Z,73.90
2018-11-25T14:04:39.378Z,74.05
2018-11-25T14:06:43.224Z,73.10
2018-11-25T14:08:49.357Z,76.80
2018-11-25T14:11:01.970Z,81.17
2018-11-25T14:13:06.015Z,76.00
2018-11-25T14:15:10.609Z,79.33
2018-11-25T14:17:14.397Z,73.45
2018-11-25T14:19:18.008Z,76.57
2018-11-25T14:21:21.541Z,76.28
2018-11-25T14:23:25.325Z,72.73
2018-11-25T14:25:28.812Z,83.55
2018-11-25T14:27:32.417Z,73.85
2018-11-25T14:29:36.050Z,74.90
2018-11-25T14:31:39.566Z,74.32
2018-11-25T14:33:43.119Z,78.50
2018-11-25T14:35:46.771Z,76.50
2018-11-25T14:37:50.171Z,66.60
2018-11-25T14:39:53.370Z,75.70
2018-11-25T14:41:56.766Z,67.80
2018-11-25T14:44:00.350Z,66.70
2018-11-25T14:46:04.003Z,66.45
2018-11-25T14:48:08.029Z,62.58
2018-11-25T14:50:13.917Z,64.20
2018-11-25T14:52:17.313Z,66.20
2018-11-25T14:54:20.819Z,61.42
2018-11-25T14:56:24.329Z,63.33
2018-11-25T14:58:27.929Z,63.08
2018-11-25T15:00:31.645Z,58.60
2018-11-25T15:02:35.121Z,64.22
2018-11-25T15:04:38.353Z,66.35
2018-11-25T15:06:41.710Z,73.93
2018-11-25T15:08:45.485Z,67.10
2018-11-25T15:10:49.708Z,59.45
2018-11-25T15:12:54.001Z,72.65
2018-11-25T15:14:57.801Z,66.60
2018-11-25T15:17:01.092Z,72.93
2018-11-25T15:19:05.046Z,67.50
2018-11-25T15:21:09.705Z,65.40
2018-11-25T15:23:14.284Z,68.50
2018-11-25T15:25:21.767Z,64.20
2018-11-25T15:27:25.225Z,67.33
2018-11-25T15:29:29.149Z,78.95
2018-11-25T15:31:32.422Z,69.80
2018-11-25T15:33:36.596Z,71.53
2018-11-25T15:35:40.960Z,69.47
2018-11-25T15:37:46.056Z,66.28
2018-11-25T15:39:49.540Z,68.92
2018-11-25T15:41:52.805Z,76.03
2018-11-25T15:43:56.421Z,85.70
2018-11-25T15:45:59.941Z,75.42
2018-11-25T15:48:27.761Z,73.92
2018-11-25T15:50:31.708Z,72.27
2018-11-25T15:52:39.559Z,69.97
2018-11-25T15:54:43.066Z,67.93
2018-11-25T15:56:46.429Z,86.63
2018-11-25T15:58:50.355Z,72.82
2018-11-25T16:00:54.009Z,74.27
2018-11-25T16:02:57.592Z,70.00
2018-11-25T16:05:01.287Z,66.07
2018-11-25T16:07:04.640Z,74.95
2018-11-25T16:09:09.151Z,77.08
2018-11-25T16:11:12.710Z,75.80
2018-11-25T16:13:16.708Z,74.12
2018-11-25T16:15:21.921Z,69.95
2018-11-25T16:17:25.449Z,75.12
2018-11-25T16:19:28.977Z,73.78
2018-11-25T16:21:33.245Z,71.85
2018-11-25T16:23:37.316Z,75.30
2018-11-25T16:25:44.473Z,74.17
2018-11-25T16:27:49.093Z,106.75
2018-11-25T16:29:52.559Z,77.63
2018-11-25T16:31:56.486Z,77.90
2018-11-25T16:34:00.112Z,74.87
2018-11-25T16:36:03.515Z,77.12
2018-11-25T16:38:07.925Z,80.47
2018-11-25T16:40:13.831Z,74.87
2018-11-25T16:42:17.957Z,74.92
2018-11-25T16:44:21.438Z,75.45
2018-11-25T16:46:24.905Z,79.47
2018-11-25T16:48:28.858Z,77.92
2018-11-25T16:50:32.540Z,66.95
2018-11-25T16:52:36.096Z,74.62
2018-11-25T16:54:39.605Z,82.10
2018-11-25T16:56:42.813Z,74.05
2018-11-25T16:58:46.307Z,80.60
2018-11-25T17:00:50.811Z,70.70
2018-11-25T17:02:54.326Z,68.00
2018-11-25T17:04:58.477Z,78.30
2018-11-25T17:07:02.011Z,75.05
2018-11-25T17:09:10.027Z,80.05
2018-11-25T17:11:13.560Z,81.50
2018-11-25T17:13:17.196Z,79.55
2018-11-25T17:15:23.806Z,77.25
2018-11-25T17:17:27.294Z,83.27
2018-11-25T17:19:31.246Z,113.35
2018-11-25T17:21:34.554Z,86.17
2018-11-25T17:23:38.144Z,81.92
2018-11-25T17:25:41.722Z,80.95
2018-11-25T17:27:45.449Z,77.40
2018-11-25T17:29:49.129Z,70.30
2018-11-25T17:31:52.638Z,68.70
2018-11-25T17:33:56.495Z,71.22
2018-11-25T17:36:00.656Z,73.57
2018-11-25T17:38:04.347Z,79.92
2018-11-25T17:40:08.995Z,81.55
2018-11-25T17:42:13.813Z,73.60
2018-11-25T17:44:17.354Z,68.37
2018-11-25T17:46:20.883Z,69.37
2018-11-25T17:48:24.131Z,78.33
2018-11-25T17:50:29.926Z,77.67
2018-11-25T17:52:33.469Z,74.10
2018-11-25T17:54:36.992Z,72.78
2018-11-25T17:56:40.433Z,71.25
2018-11-25T17:58:44.256Z,77.53
2018-11-25T18:00:54.911Z,75.77
2018-11-25T18:02:58.786Z,73.60
2018-11-25T18:05:02.315Z,74.58
2018-11-25T18:07:05.870Z,79.27
2018-11-25T18:09:11.105Z,79.00
2018-11-25T18:11:15.056Z,67.35
2018-11-25T18:13:20.228Z,70.70
2018-11-25T18:15:24.145Z,69.37
2018-11-25T18:17:27.664Z,73.75
2018-11-25T18:19:30.924Z,64.43
2018-11-25T18:21:34.596Z,63.95
2018-11-25T18:23:38.149Z,66.80
2018-11-25T18:25:41.689Z,65.35
2018-11-25T18:27:45.244Z,68.52
2018-11-25T18:29:48.866Z,70.37
2018-11-25T18:31:52.096Z,63.37
2018-11-25T18:33:55.621Z,67.35
2018-11-25T18:35:59.550Z,70.87
2018-11-25T18:38:03.253Z,67.80
2018-11-25T18:40:09.281Z,73.75
2018-11-25T18:42:13.210Z,67.03
2018-11-25T18:44:17.322Z,61.77
2018-11-25T18:46:21.050Z,64.72
2018-11-25T18:48:25.218Z,62.70
2018-11-25T18:50:29.612Z,65.83
2018-11-25T18:52:33.318Z,63.80
2018-11-25T18:54:46.422Z,64.95
2018-11-25T18:56:49.853Z,62.83
2018-11-25T18:58:53.726Z,61.90
2018-11-25T19:01:07.397Z,63.48
2018-11-25T19:03:11.023Z,64.20
2018-11-25T19:05:14.970Z,60.58
2018-11-25T19:07:19.316Z,54.88
2018-11-25T19:09:23.174Z,58.13
2018-11-25T19:11:26.771Z,56.20
2018-11-25T19:13:30.077Z,61.70
2018-11-25T19:15:33.601Z,60.85
2018-11-25T19:17:37.117Z,58.80
2018-11-25T19:19:40.398Z,53.27
2018-11-25T19:21:43.950Z,56.08
2018-11-25T19:23:47.514Z,54.50
2018-11-25T19:25:51.158Z,56.85
2018-11-25T19:27:55.298Z,52.23
2018-11-25T19:29:59.257Z,51.77
2018-11-25T19:32:02.571Z,52.85
2018-11-25T19:34:06.352Z,49.88
2018-11-25T19:36:09.742Z,52.83
2018-11-25T19:38:13.283Z,49.40
2018-11-25T19:40:19.360Z,45.78
2018-11-25T19:42:22.982Z,54.33
2018-11-25T19:44:26.518Z,51.10
2018-11-25T19:46:30.020Z,45.63
2018-11-25T19:48:33.800Z,46.60
2018-11-25T19:50:38.242Z,45.40
2018-11-25T19:52:42.074Z,50.45
2018-11-25T19:54:52.463Z,49.00
2018-11-25T19:56:56.290Z,52.43
2018-11-25T19:58:59.933Z,49.50
2018-11-25T20:01:03.477Z,50.83
2018-11-25T20:03:07.591Z,57.83
2018-11-25T20:05:12.215Z,56.30
2018-11-25T20:07:15.705Z,47.27
2018-11-25T20:09:19.272Z,52.93
2018-11-25T20:11:23.377Z,46.63
2018-11-25T20:13:27.265Z,47.65
2018-11-25T20:15:31.025Z,46.10
2018-11-25T20:17:34.797Z,50.78
2018-11-25T20:19:38.072Z,46.60
2018-11-25T20:22:49.870Z,42.45
2018-11-25T20:24:53.593Z,40.78
2018-11-25T20:27:02.591Z,46.55
2018-11-25T20:29:06.544Z,41.28
2018-11-25T20:31:10.835Z,41.80
2018-11-25T20:33:20.254Z,40.90
2018-11-25T20:35:24.419Z,46.57
2018-11-25T20:37:28.301Z,40.25
2018-11-25T20:39:34.445Z,40.25
2018-11-25T20:41:38.057Z,44.45
2018-11-25T20:43:41.568Z,47.17
2018-11-25T20:45:50.718Z,45.50
2018-11-25T20:47:55.101Z,56.55
2018-11-25T20:49:59.000Z,42.40
2018-11-25T20:52:08.379Z,38.98
2018-11-25T20:54:11.985Z,44.60
2018-11-25T20:56:15.561Z,38.65
2018-11-25T20:58:19.121Z,40.23
2018-11-25T21:00:24.995Z,38.70
2018-11-25T21:02:29.481Z,38.73
2018-11-25T21:04:32.558Z,45.48
2018-11-25T21:06:36.063Z,38.55
2018-11-25T21:08:39.729Z,40.80
2018-11-25T21:10:43.149Z,44.55
2018-11-25T21:12:49.295Z,36.03
2018-11-25T21:14:52.733Z,42.15
2018-11-25T21:16:56.310Z,39.23
2018-11-25T21:18:59.919Z,38.53
2018-11-25T21:21:03.752Z,38.37
2018-11-25T21:23:07.678Z,39.42
2018-11-25T21:25:15.255Z,43.05
2018-11-25T21:27:18.800Z,40.48
2018-11-25T21:29:22.677Z,57.27
2018-11-25T21:31:26.468Z,43.80
2018-11-25T21:33:30.350Z,42.40
2018-11-25T21:35:33.804Z,40.47
2018-11-25T21:37:37.611Z,40.17
2018-11-25T21:39:41.164Z,41.42
2018-11-25T21:41:44.503Z,41.83
2018-11-25T21:43:48.374Z,40.63
2018-11-25T21:45:52.083Z,40.98
2018-11-25T21:47:55.862Z,42.03
2018-11-25T21:49:59.354Z,43.78
2018-11-25T21:52:03.272Z,41.17
2018-11-25T21:54:06.805Z,43.45
2018-11-25T21:56:14.319Z,43.15
2018-11-25T21:58:13.923Z,38.53
2018-11-25T22:00:19.753Z,40.80
2018-11-25T22:02:23.302Z,45.30
2018-11-25T22:04:26.822Z,45.25
2018-11-25T22:06:29.997Z,45.53
2018-11-25T22:08:33.765Z,44.58
2018-11-25T22:10:37.608Z,44.03
2018-11-25T22:12:42.064Z,44.13
2018-11-25T22:14:46.010Z,42.20
2018-11-25T22:16:49.592Z,38.40
2018-11-25T22:18:53.117Z,38.58
2018-11-25T22:20:56.673Z,39.90
2018-11-25T22:23:00.117Z,36.88
2018-11-25T22:25:04.349Z,36.38
2018-11-25T22:27:08.106Z,32.88
2018-11-25T22:29:11.685Z,42.73
2018-11-25T22:31:15.202Z,36.60
2018-11-25T22:33:19.036Z,33.75
2018-11-25T22:35:23.185Z,37.65
2018-11-25T22:37:27.333Z,33.15
2018-11-25T22:39:31.054Z,34.13
2018-11-25T22:41:34.264Z,33.88
2018-11-25T22:43:37.523Z,31.83
2018-11-25T22:45:41.249Z,36.93
2018-11-25T22:47:44.480Z,34.80
2018-11-25T22:49:47.994Z,37.98
2018-11-25T22:51:51.714Z,38.73
2018-11-25T22:53:55.288Z,38.20
2018-11-25T22:55:58.692Z,37.37
2018-11-25T22:58:02.437Z,38.80
2018-11-25T23:00:16.808Z,40.80
2018-11-25T23:02:20.702Z,39.90
2018-11-25T23:04:35.605Z,38.85
2018-11-25T23:06:50.454Z,42.23
2018-11-25T23:08:53.849Z,44.00
2018-11-25T23:10:57.362Z,40.73
2018-11-25T23:13:01.168Z,44.30
2018-11-25T23:15:04.654Z,41.10
2018-11-25T23:17:07.837Z,41.00
2018-11-25T23:19:11.063Z,37.87
2018-11-25T23:21:14.730Z,41.80
2018-11-25T23:23:17.961Z,39.05
2018-11-25T23:25:21.581Z,34.20
2018-11-25T23:27:25.081Z,36.33
2018-11-25T23:29:28.566Z,36.95
2018-11-25T23:31:32.221Z,37.30
2018-11-25T23:33:36.080Z,36.93
2018-11-25T23:35:40.201Z,39.15
2018-11-25T23:37:43.791Z,36.57
2018-11-25T23:39:47.909Z,37.55
2018-11-25T23:41:51.440Z,37.10
2018-11-25T23:43:55.245Z,34.98
2018-11-25T23:45:58.801Z,35.00
2018-11-25T23:48:02.486Z,37.85
2018-11-25T23:50:07.633Z,37.90
2018-11-25T23:52:11.026Z,36.83
2018-11-25T23:54:14.900Z,37.80
2018-11-25T23:56:18.424Z,37.55
2018-11-25T23:58:22.342Z,38.48
